<?xml version="1.0" encoding="UTF-8" standalone="no" ?>
<gpx xmlns="http://www.topografix.com/GPX/1/1" xmlns:xsi="http://www.w3.org/2001/XMLSchema-instance" xsi:schemaLocation="http://www.topografix.com/GPX/1/1 http://www.topografix.com/GPX/1/1/gpx.xsd" version="1.1" creator="VisuGPX - https://www.visugpx.com">
  <metadata>
    <name>Col de Chironne - But de Nève - Col de Rousset</name>
    <desc><![CDATA[Ascension du But de Nève au départ du Col de Chironne. Retour au Col de Rousset par les crêtes.]]></desc>
  </metadata>
  <trk>
    <name><![CDATA[Tracé 002]]></name>
    <trkseg>
      <trkpt lat="44.84235" lon="5.3872">
        <ele>1417.242</ele>
        <time>2015-09-28T11:04:32Z</time>
      </trkpt>
      <trkpt lat="44.84242" lon="5.38732">
        <ele>1417.369</ele>
        <time>2015-09-28T11:04:41Z</time>
      </trkpt>
      <trkpt lat="44.84244" lon="5.38734">
        <ele>1417.774</ele>
        <time>2015-09-28T11:04:44Z</time>
      </trkpt>
      <trkpt lat="44.84265" lon="5.38757">
        <ele>1418.783</ele>
        <time>2015-09-28T11:05:05Z</time>
      </trkpt>
      <trkpt lat="44.84279" lon="5.38773">
        <ele>1419.964</ele>
        <time>2015-09-28T11:05:23Z</time>
      </trkpt>
      <trkpt lat="44.84288" lon="5.38779">
        <ele>1421.206</ele>
        <time>2015-09-28T11:05:33Z</time>
      </trkpt>
      <trkpt lat="44.843" lon="5.38784">
        <ele>1422.617</ele>
        <time>2015-09-28T11:05:46Z</time>
      </trkpt>
      <trkpt lat="44.84311" lon="5.388">
        <ele>1424.963</ele>
        <time>2015-09-28T11:06:05Z</time>
      </trkpt>
      <trkpt lat="44.84322" lon="5.38814">
        <ele>1428.168</ele>
        <time>2015-09-28T11:06:23Z</time>
      </trkpt>
      <trkpt lat="44.84336" lon="5.3883">
        <ele>1430.903</ele>
        <time>2015-09-28T11:06:44Z</time>
      </trkpt>
      <trkpt lat="44.84339" lon="5.38842">
        <ele>1433.876</ele>
        <time>2015-09-28T11:07:01Z</time>
      </trkpt>
      <trkpt lat="44.84329" lon="5.38855">
        <ele>1437.049</ele>
        <time>2015-09-28T11:07:17Z</time>
      </trkpt>
      <trkpt lat="44.84331" lon="5.38872">
        <ele>1440.439</ele>
        <time>2015-09-28T11:07:37Z</time>
      </trkpt>
      <trkpt lat="44.84348" lon="5.38884">
        <ele>1443.946</ele>
        <time>2015-09-28T11:07:58Z</time>
      </trkpt>
      <trkpt lat="44.84362" lon="5.38893">
        <ele>1446.596</ele>
        <time>2015-09-28T11:08:18Z</time>
      </trkpt>
      <trkpt lat="44.84371" lon="5.38901">
        <ele>1449.894</ele>
        <time>2015-09-28T11:08:35Z</time>
      </trkpt>
      <trkpt lat="44.84378" lon="5.38908">
        <ele>1453.183</ele>
        <time>2015-09-28T11:08:49Z</time>
      </trkpt>
      <trkpt lat="44.84386" lon="5.38916">
        <ele>1456.203</ele>
        <time>2015-09-28T11:09:05Z</time>
      </trkpt>
      <trkpt lat="44.84379" lon="5.38924">
        <ele>1458.978</ele>
        <time>2015-09-28T11:09:21Z</time>
      </trkpt>
      <trkpt lat="44.84372" lon="5.38937">
        <ele>1461.987</ele>
        <time>2015-09-28T11:09:38Z</time>
      </trkpt>
      <trkpt lat="44.84368" lon="5.38949">
        <ele>1465.113</ele>
        <time>2015-09-28T11:09:52Z</time>
      </trkpt>
      <trkpt lat="44.84374" lon="5.38956">
        <ele>1467.465</ele>
        <time>2015-09-28T11:10:05Z</time>
      </trkpt>
      <trkpt lat="44.84377" lon="5.38961">
        <ele>1468.963</ele>
        <time>2015-09-28T11:10:25Z</time>
      </trkpt>
      <trkpt lat="44.84371" lon="5.3897">
        <ele>1471.376</ele>
        <time>2015-09-28T11:10:43Z</time>
      </trkpt>
      <trkpt lat="44.84367" lon="5.38983">
        <ele>1474.163</ele>
        <time>2015-09-28T11:10:58Z</time>
      </trkpt>
      <trkpt lat="44.84361" lon="5.38994">
        <ele>1477.4</ele>
        <time>2015-09-28T11:11:13Z</time>
      </trkpt>
      <trkpt lat="44.84351" lon="5.39007">
        <ele>1480.661</ele>
        <time>2015-09-28T11:11:31Z</time>
      </trkpt>
      <trkpt lat="44.84342" lon="5.39018">
        <ele>1483.485</ele>
        <time>2015-09-28T11:11:49Z</time>
      </trkpt>
      <trkpt lat="44.8434" lon="5.39026">
        <ele>1486.041</ele>
        <time>2015-09-28T11:12:04Z</time>
      </trkpt>
      <trkpt lat="44.8434" lon="5.39033">
        <ele>1488.067</ele>
        <time>2015-09-28T11:12:29Z</time>
      </trkpt>
      <trkpt lat="44.84358" lon="5.39029">
        <ele>1486.767</ele>
        <time>2015-09-28T11:12:48Z</time>
      </trkpt>
      <trkpt lat="44.84369" lon="5.39029">
        <ele>1487.552</ele>
        <time>2015-09-28T11:13:01Z</time>
      </trkpt>
      <trkpt lat="44.84379" lon="5.39033">
        <ele>1489.956</ele>
        <time>2015-09-28T11:13:16Z</time>
      </trkpt>
      <trkpt lat="44.84381" lon="5.39036">
        <ele>1491.085</ele>
        <time>2015-09-28T11:13:21Z</time>
      </trkpt>
      <trkpt lat="44.84383" lon="5.39051">
        <ele>1494.438</ele>
        <time>2015-09-28T11:13:36Z</time>
      </trkpt>
      <trkpt lat="44.84389" lon="5.39053">
        <ele>1495.397</ele>
        <time>2015-09-28T11:13:44Z</time>
      </trkpt>
      <trkpt lat="44.84399" lon="5.39053">
        <ele>1497.606</ele>
        <time>2015-09-28T11:13:57Z</time>
      </trkpt>
      <trkpt lat="44.84402" lon="5.39065">
        <ele>1499.984</ele>
        <time>2015-09-28T11:14:10Z</time>
      </trkpt>
      <trkpt lat="44.84406" lon="5.3907">
        <ele>1501.918</ele>
        <time>2015-09-28T11:14:30Z</time>
      </trkpt>
      <trkpt lat="44.84412" lon="5.39078">
        <ele>1504.526</ele>
        <time>2015-09-28T11:15:09Z</time>
      </trkpt>
      <trkpt lat="44.84415" lon="5.3908">
        <ele>1505.216</ele>
        <time>2015-09-28T11:15:36Z</time>
      </trkpt>
      <trkpt lat="44.84424" lon="5.39084">
        <ele>1507.068</ele>
        <time>2015-09-28T11:15:49Z</time>
      </trkpt>
      <trkpt lat="44.84435" lon="5.39093">
        <ele>1510.342</ele>
        <time>2015-09-28T11:16:04Z</time>
      </trkpt>
      <trkpt lat="44.84451" lon="5.39101">
        <ele>1513.851</ele>
        <time>2015-09-28T11:16:25Z</time>
      </trkpt>
      <trkpt lat="44.84466" lon="5.3911">
        <ele>1517.413</ele>
        <time>2015-09-28T11:16:46Z</time>
      </trkpt>
      <trkpt lat="44.84479" lon="5.39117">
        <ele>1520.56</ele>
        <time>2015-09-28T11:17:04Z</time>
      </trkpt>
      <trkpt lat="44.84495" lon="5.39128">
        <ele>1523.72</ele>
        <time>2015-09-28T11:17:25Z</time>
      </trkpt>
      <trkpt lat="44.84484" lon="5.39151">
        <ele>1526.576</ele>
        <time>2015-09-28T11:17:47Z</time>
      </trkpt>
      <trkpt lat="44.84481" lon="5.39171">
        <ele>1529.681</ele>
        <time>2015-09-28T11:18:05Z</time>
      </trkpt>
      <trkpt lat="44.84482" lon="5.39175">
        <ele>1530.273</ele>
        <time>2015-09-28T11:18:30Z</time>
      </trkpt>
      <trkpt lat="44.84484" lon="5.39177">
        <ele>1531.163</ele>
        <time>2015-09-28T11:19:42Z</time>
      </trkpt>
      <trkpt lat="44.84497" lon="5.39174">
        <ele>1534.276</ele>
        <time>2015-09-28T11:20:00Z</time>
      </trkpt>
      <trkpt lat="44.84507" lon="5.39174">
        <ele>1537.365</ele>
        <time>2015-09-28T11:20:14Z</time>
      </trkpt>
      <trkpt lat="44.84518" lon="5.39174">
        <ele>1540.702</ele>
        <time>2015-09-28T11:20:30Z</time>
      </trkpt>
      <trkpt lat="44.84528" lon="5.39177">
        <ele>1543.728</ele>
        <time>2015-09-28T11:20:44Z</time>
      </trkpt>
      <trkpt lat="44.84538" lon="5.3918">
        <ele>1547.099</ele>
        <time>2015-09-28T11:20:58Z</time>
      </trkpt>
      <trkpt lat="44.84548" lon="5.39184">
        <ele>1550.125</ele>
        <time>2015-09-28T11:21:14Z</time>
      </trkpt>
      <trkpt lat="44.84557" lon="5.39191">
        <ele>1553.61</ele>
        <time>2015-09-28T11:21:31Z</time>
      </trkpt>
      <trkpt lat="44.84564" lon="5.39196">
        <ele>1556.876</ele>
        <time>2015-09-28T11:21:45Z</time>
      </trkpt>
      <trkpt lat="44.84573" lon="5.39201">
        <ele>1560.036</ele>
        <time>2015-09-28T11:21:59Z</time>
      </trkpt>
      <trkpt lat="44.84575" lon="5.39202">
        <ele>1560.707</ele>
        <time>2015-09-28T11:22:29Z</time>
      </trkpt>
      <trkpt lat="44.84585" lon="5.39208">
        <ele>1563.926</ele>
        <time>2015-09-28T11:22:45Z</time>
      </trkpt>
      <trkpt lat="44.84593" lon="5.39218">
        <ele>1567.038</ele>
        <time>2015-09-28T11:22:59Z</time>
      </trkpt>
      <trkpt lat="44.84599" lon="5.39223">
        <ele>1569.823</ele>
        <time>2015-09-28T11:23:13Z</time>
      </trkpt>
      <trkpt lat="44.84607" lon="5.3923">
        <ele>1572.944</ele>
        <time>2015-09-28T11:23:27Z</time>
      </trkpt>
      <trkpt lat="44.84616" lon="5.39235">
        <ele>1576.115</ele>
        <time>2015-09-28T11:23:43Z</time>
      </trkpt>
      <trkpt lat="44.84617" lon="5.39236">
        <ele>1576.566</ele>
        <time>2015-09-28T11:24:04Z</time>
      </trkpt>
      <trkpt lat="44.84618" lon="5.39236">
        <ele>1576.749</ele>
        <time>2015-09-28T11:24:13Z</time>
      </trkpt>
      <trkpt lat="44.84625" lon="5.3924">
        <ele>1577.763</ele>
        <time>2015-09-28T11:24:21Z</time>
      </trkpt>
      <trkpt lat="44.84639" lon="5.39253">
        <ele>1581.441</ele>
        <time>2015-09-28T11:24:41Z</time>
      </trkpt>
      <trkpt lat="44.84646" lon="5.39261">
        <ele>1585.114</ele>
        <time>2015-09-28T11:24:57Z</time>
      </trkpt>
      <trkpt lat="44.84659" lon="5.39273">
        <ele>1588.481</ele>
        <time>2015-09-28T11:25:16Z</time>
      </trkpt>
      <trkpt lat="44.8465" lon="5.39283">
        <ele>1591.509</ele>
        <time>2015-09-28T11:25:32Z</time>
      </trkpt>
      <trkpt lat="44.84633" lon="5.39291">
        <ele>1594.539</ele>
        <time>2015-09-28T11:25:53Z</time>
      </trkpt>
      <trkpt lat="44.84621" lon="5.39298">
        <ele>1597.607</ele>
        <time>2015-09-28T11:26:09Z</time>
      </trkpt>
      <trkpt lat="44.8461" lon="5.39306">
        <ele>1600.905</ele>
        <time>2015-09-28T11:26:27Z</time>
      </trkpt>
      <trkpt lat="44.846" lon="5.39315">
        <ele>1604.025</ele>
        <time>2015-09-28T11:26:43Z</time>
      </trkpt>
      <trkpt lat="44.8459" lon="5.39323">
        <ele>1607.043</ele>
        <time>2015-09-28T11:27:04Z</time>
      </trkpt>
      <trkpt lat="44.84597" lon="5.39327">
        <ele>1608.43</ele>
        <time>2015-09-28T11:27:36Z</time>
      </trkpt>
      <trkpt lat="44.84605" lon="5.39334">
        <ele>1611.662</ele>
        <time>2015-09-28T11:27:50Z</time>
      </trkpt>
      <trkpt lat="44.84616" lon="5.39345">
        <ele>1615.641</ele>
        <time>2015-09-28T11:28:09Z</time>
      </trkpt>
      <trkpt lat="44.84612" lon="5.3935">
        <ele>1618.336</ele>
        <time>2015-09-28T11:28:23Z</time>
      </trkpt>
      <trkpt lat="44.84599" lon="5.3936">
        <ele>1621.776</ele>
        <time>2015-09-28T11:28:41Z</time>
      </trkpt>
      <trkpt lat="44.84599" lon="5.39367">
        <ele>1624.773</ele>
        <time>2015-09-28T11:28:56Z</time>
      </trkpt>
      <trkpt lat="44.84609" lon="5.39373">
        <ele>1627.804</ele>
        <time>2015-09-28T11:29:14Z</time>
      </trkpt>
      <trkpt lat="44.84616" lon="5.39379">
        <ele>1630.441</ele>
        <time>2015-09-28T11:29:30Z</time>
      </trkpt>
      <trkpt lat="44.84607" lon="5.39387">
        <ele>1633.604</ele>
        <time>2015-09-28T11:29:46Z</time>
      </trkpt>
      <trkpt lat="44.84608" lon="5.39394">
        <ele>1636.806</ele>
        <time>2015-09-28T11:30:00Z</time>
      </trkpt>
      <trkpt lat="44.84601" lon="5.394">
        <ele>1639.221</ele>
        <time>2015-09-28T11:30:14Z</time>
      </trkpt>
      <trkpt lat="44.84595" lon="5.39408">
        <ele>1642.106</ele>
        <time>2015-09-28T11:30:32Z</time>
      </trkpt>
      <trkpt lat="44.84601" lon="5.39415">
        <ele>1645.872</ele>
        <time>2015-09-28T11:30:47Z</time>
      </trkpt>
      <trkpt lat="44.84589" lon="5.39426">
        <ele>1649.463</ele>
        <time>2015-09-28T11:31:08Z</time>
      </trkpt>
      <trkpt lat="44.84588" lon="5.39433">
        <ele>1651.468</ele>
        <time>2015-09-28T11:39:17Z</time>
      </trkpt>
      <trkpt lat="44.84591" lon="5.39435">
        <ele>1652.364</ele>
        <time>2015-09-28T11:45:49Z</time>
      </trkpt>
      <trkpt lat="44.84585" lon="5.3944">
        <ele>1651.571</ele>
        <time>2015-09-28T11:45:58Z</time>
      </trkpt>
      <trkpt lat="44.84582" lon="5.3944">
        <ele>1651.571</ele>
        <time>2015-09-28T11:46:01Z</time>
      </trkpt>
      <trkpt lat="44.84573" lon="5.39448">
        <ele>1649.214</ele>
        <time>2015-09-28T11:46:19Z</time>
      </trkpt>
      <trkpt lat="44.84567" lon="5.39455">
        <ele>1647.201</ele>
        <time>2015-09-28T11:46:39Z</time>
      </trkpt>
      <trkpt lat="44.84566" lon="5.39456">
        <ele>1646.672</ele>
        <time>2015-09-28T11:46:52Z</time>
      </trkpt>
      <trkpt lat="44.84557" lon="5.39469">
        <ele>1643.071</ele>
        <time>2015-09-28T11:47:06Z</time>
      </trkpt>
      <trkpt lat="44.84551" lon="5.39481">
        <ele>1639.639</ele>
        <time>2015-09-28T11:47:18Z</time>
      </trkpt>
      <trkpt lat="44.84543" lon="5.39493">
        <ele>1636.016</ele>
        <time>2015-09-28T11:47:31Z</time>
      </trkpt>
      <trkpt lat="44.84533" lon="5.39503">
        <ele>1632.943</ele>
        <time>2015-09-28T11:47:43Z</time>
      </trkpt>
      <trkpt lat="44.84527" lon="5.3951">
        <ele>1631.183</ele>
        <time>2015-09-28T11:48:02Z</time>
      </trkpt>
      <trkpt lat="44.84519" lon="5.39521">
        <ele>1628.004</ele>
        <time>2015-09-28T11:48:13Z</time>
      </trkpt>
      <trkpt lat="44.8451" lon="5.39531">
        <ele>1624.86</ele>
        <time>2015-09-28T11:48:25Z</time>
      </trkpt>
      <trkpt lat="44.84502" lon="5.39541">
        <ele>1621.613</ele>
        <time>2015-09-28T11:48:37Z</time>
      </trkpt>
      <trkpt lat="44.84493" lon="5.39552">
        <ele>1618.492</ele>
        <time>2015-09-28T11:48:50Z</time>
      </trkpt>
      <trkpt lat="44.84492" lon="5.39555">
        <ele>1617.517</ele>
        <time>2015-09-28T11:49:13Z</time>
      </trkpt>
      <trkpt lat="44.8449" lon="5.39559">
        <ele>1616.508</ele>
        <time>2015-09-28T11:49:16Z</time>
      </trkpt>
      <trkpt lat="44.84479" lon="5.3957">
        <ele>1613.009</ele>
        <time>2015-09-28T11:49:30Z</time>
      </trkpt>
      <trkpt lat="44.84467" lon="5.39581">
        <ele>1609.619</ele>
        <time>2015-09-28T11:49:43Z</time>
      </trkpt>
      <trkpt lat="44.8446" lon="5.39588">
        <ele>1606.863</ele>
        <time>2015-09-28T11:49:52Z</time>
      </trkpt>
      <trkpt lat="44.84456" lon="5.39594">
        <ele>1604.419</ele>
        <time>2015-09-28T11:50:05Z</time>
      </trkpt>
      <trkpt lat="44.84452" lon="5.39598">
        <ele>1603.587</ele>
        <time>2015-09-28T11:50:10Z</time>
      </trkpt>
      <trkpt lat="44.84447" lon="5.39603">
        <ele>1600.717</ele>
        <time>2015-09-28T11:50:18Z</time>
      </trkpt>
      <trkpt lat="44.84434" lon="5.39613">
        <ele>1596.862</ele>
        <time>2015-09-28T11:50:34Z</time>
      </trkpt>
      <trkpt lat="44.84428" lon="5.3962">
        <ele>1594.458</ele>
        <time>2015-09-28T11:50:43Z</time>
      </trkpt>
      <trkpt lat="44.8442" lon="5.39631">
        <ele>1591.2</ele>
        <time>2015-09-28T11:50:57Z</time>
      </trkpt>
      <trkpt lat="44.84415" lon="5.39634">
        <ele>1589.289</ele>
        <time>2015-09-28T11:51:13Z</time>
      </trkpt>
      <trkpt lat="44.84411" lon="5.39637">
        <ele>1586.552</ele>
        <time>2015-09-28T11:51:29Z</time>
      </trkpt>
      <trkpt lat="44.84398" lon="5.39647">
        <ele>1583.806</ele>
        <time>2015-09-28T11:51:46Z</time>
      </trkpt>
      <trkpt lat="44.84393" lon="5.39651">
        <ele>1583.067</ele>
        <time>2015-09-28T11:51:52Z</time>
      </trkpt>
      <trkpt lat="44.8439" lon="5.39655">
        <ele>1580.762</ele>
        <time>2015-09-28T11:51:57Z</time>
      </trkpt>
      <trkpt lat="44.84381" lon="5.39662">
        <ele>1577.362</ele>
        <time>2015-09-28T11:52:07Z</time>
      </trkpt>
      <trkpt lat="44.84376" lon="5.39665">
        <ele>1575.544</ele>
        <time>2015-09-28T11:52:27Z</time>
      </trkpt>
      <trkpt lat="44.84372" lon="5.39673">
        <ele>1573.715</ele>
        <time>2015-09-28T11:53:22Z</time>
      </trkpt>
      <trkpt lat="44.84363" lon="5.39681">
        <ele>1570.5</ele>
        <time>2015-09-28T11:53:33Z</time>
      </trkpt>
      <trkpt lat="44.84353" lon="5.39689">
        <ele>1568.51</ele>
        <time>2015-09-28T11:53:46Z</time>
      </trkpt>
      <trkpt lat="44.84343" lon="5.39696">
        <ele>1565.284</ele>
        <time>2015-09-28T11:54:00Z</time>
      </trkpt>
      <trkpt lat="44.84342" lon="5.39697">
        <ele>1564.642</ele>
        <time>2015-09-28T11:54:02Z</time>
      </trkpt>
      <trkpt lat="44.84335" lon="5.39703">
        <ele>1561.463</ele>
        <time>2015-09-28T11:54:12Z</time>
      </trkpt>
      <trkpt lat="44.84326" lon="5.39708">
        <ele>1558.926</ele>
        <time>2015-09-28T11:54:31Z</time>
      </trkpt>
      <trkpt lat="44.84323" lon="5.39713">
        <ele>1556.413</ele>
        <time>2015-09-28T11:55:05Z</time>
      </trkpt>
      <trkpt lat="44.84318" lon="5.3972">
        <ele>1553.457</ele>
        <time>2015-09-28T11:55:16Z</time>
      </trkpt>
      <trkpt lat="44.84316" lon="5.39722">
        <ele>1552.68</ele>
        <time>2015-09-28T11:55:19Z</time>
      </trkpt>
      <trkpt lat="44.84309" lon="5.39728">
        <ele>1549.142</ele>
        <time>2015-09-28T11:55:29Z</time>
      </trkpt>
      <trkpt lat="44.84307" lon="5.39731">
        <ele>1548.859</ele>
        <time>2015-09-28T11:55:32Z</time>
      </trkpt>
      <trkpt lat="44.84303" lon="5.39735">
        <ele>1546.69</ele>
        <time>2015-09-28T11:55:37Z</time>
      </trkpt>
      <trkpt lat="44.84294" lon="5.39742">
        <ele>1543.339</ele>
        <time>2015-09-28T11:55:49Z</time>
      </trkpt>
      <trkpt lat="44.84284" lon="5.3975">
        <ele>1540.203</ele>
        <time>2015-09-28T11:56:03Z</time>
      </trkpt>
      <trkpt lat="44.84275" lon="5.39757">
        <ele>1536.992</ele>
        <time>2015-09-28T11:56:15Z</time>
      </trkpt>
      <trkpt lat="44.84265" lon="5.39763">
        <ele>1533.761</ele>
        <time>2015-09-28T11:56:27Z</time>
      </trkpt>
      <trkpt lat="44.84253" lon="5.39768">
        <ele>1530.989</ele>
        <time>2015-09-28T11:56:44Z</time>
      </trkpt>
      <trkpt lat="44.84249" lon="5.39774">
        <ele>1527.919</ele>
        <time>2015-09-28T11:56:56Z</time>
      </trkpt>
      <trkpt lat="44.84249" lon="5.39774">
        <ele>1527.07</ele>
        <time>2015-09-28T11:56:59Z</time>
      </trkpt>
      <trkpt lat="44.84244" lon="5.39779">
        <ele>1525.871</ele>
        <time>2015-09-28T11:57:05Z</time>
      </trkpt>
      <trkpt lat="44.84236" lon="5.39785">
        <ele>1523.63</ele>
        <time>2015-09-28T11:57:16Z</time>
      </trkpt>
      <trkpt lat="44.84234" lon="5.39788">
        <ele>1522.053</ele>
        <time>2015-09-28T11:57:19Z</time>
      </trkpt>
      <trkpt lat="44.84233" lon="5.39788">
        <ele>1521.627</ele>
        <time>2015-09-28T11:57:20Z</time>
      </trkpt>
      <trkpt lat="44.84225" lon="5.39792">
        <ele>1519.63</ele>
        <time>2015-09-28T11:57:31Z</time>
      </trkpt>
      <trkpt lat="44.84217" lon="5.39796">
        <ele>1516.274</ele>
        <time>2015-09-28T11:57:43Z</time>
      </trkpt>
      <trkpt lat="44.84209" lon="5.398">
        <ele>1512.54</ele>
        <time>2015-09-28T11:57:57Z</time>
      </trkpt>
      <trkpt lat="44.84202" lon="5.39802">
        <ele>1511.18</ele>
        <time>2015-09-28T11:58:05Z</time>
      </trkpt>
      <trkpt lat="44.84194" lon="5.39797">
        <ele>1511.261</ele>
        <time>2015-09-28T11:58:22Z</time>
      </trkpt>
      <trkpt lat="44.84195" lon="5.39798">
        <ele>1511.267</ele>
        <time>2015-09-28T11:58:58Z</time>
      </trkpt>
      <trkpt lat="44.84193" lon="5.398">
        <ele>1509.626</ele>
        <time>2015-09-28T11:59:11Z</time>
      </trkpt>
      <trkpt lat="44.84194" lon="5.398">
        <ele>1508.402</ele>
        <time>2015-09-28T11:59:28Z</time>
      </trkpt>
      <trkpt lat="44.84194" lon="5.398">
        <ele>1507.56</ele>
        <time>2015-09-28T12:00:15Z</time>
      </trkpt>
      <trkpt lat="44.84194" lon="5.398">
        <ele>1509.031</ele>
        <time>2015-09-28T12:00:17Z</time>
      </trkpt>
      <trkpt lat="44.84193" lon="5.39801">
        <ele>1509.835</ele>
        <time>2015-09-28T12:00:35Z</time>
      </trkpt>
      <trkpt lat="44.84192" lon="5.39801">
        <ele>1509.38</ele>
        <time>2015-09-28T12:00:40Z</time>
      </trkpt>
      <trkpt lat="44.84193" lon="5.39804">
        <ele>1508.981</ele>
        <time>2015-09-28T12:00:42Z</time>
      </trkpt>
      <trkpt lat="44.84192" lon="5.39811">
        <ele>1507.211</ele>
        <time>2015-09-28T12:00:47Z</time>
      </trkpt>
      <trkpt lat="44.84191" lon="5.39815">
        <ele>1505.972</ele>
        <time>2015-09-28T12:00:50Z</time>
      </trkpt>
      <trkpt lat="44.84186" lon="5.39826">
        <ele>1502.584</ele>
        <time>2015-09-28T12:01:00Z</time>
      </trkpt>
      <trkpt lat="44.84179" lon="5.39832">
        <ele>1500.277</ele>
        <time>2015-09-28T12:01:08Z</time>
      </trkpt>
      <trkpt lat="44.84168" lon="5.3984">
        <ele>1497.199</ele>
        <time>2015-09-28T12:01:20Z</time>
      </trkpt>
      <trkpt lat="44.84167" lon="5.39842">
        <ele>1496.446</ele>
        <time>2015-09-28T12:01:22Z</time>
      </trkpt>
      <trkpt lat="44.84158" lon="5.39851">
        <ele>1493.386</ele>
        <time>2015-09-28T12:01:34Z</time>
      </trkpt>
      <trkpt lat="44.84148" lon="5.39859">
        <ele>1490.807</ele>
        <time>2015-09-28T12:01:54Z</time>
      </trkpt>
      <trkpt lat="44.84144" lon="5.39859">
        <ele>1489.867</ele>
        <time>2015-09-28T12:01:59Z</time>
      </trkpt>
      <trkpt lat="44.84143" lon="5.39864">
        <ele>1486.13</ele>
        <time>2015-09-28T12:02:12Z</time>
      </trkpt>
      <trkpt lat="44.84143" lon="5.39864">
        <ele>1486.13</ele>
        <time>2015-09-28T12:02:13Z</time>
      </trkpt>
      <trkpt lat="44.84138" lon="5.39871">
        <ele>1482.864</ele>
        <time>2015-09-28T12:02:23Z</time>
      </trkpt>
      <trkpt lat="44.8413" lon="5.39878">
        <ele>1479.2</ele>
        <time>2015-09-28T12:02:35Z</time>
      </trkpt>
      <trkpt lat="44.84126" lon="5.39884">
        <ele>1477.104</ele>
        <time>2015-09-28T12:02:43Z</time>
      </trkpt>
      <trkpt lat="44.84125" lon="5.39885">
        <ele>1476.776</ele>
        <time>2015-09-28T12:02:44Z</time>
      </trkpt>
      <trkpt lat="44.84118" lon="5.3989">
        <ele>1474.75</ele>
        <time>2015-09-28T12:02:52Z</time>
      </trkpt>
      <trkpt lat="44.84114" lon="5.3989">
        <ele>1473.772</ele>
        <time>2015-09-28T12:03:10Z</time>
      </trkpt>
      <trkpt lat="44.84102" lon="5.39898">
        <ele>1470.76</ele>
        <time>2015-09-28T12:03:23Z</time>
      </trkpt>
      <trkpt lat="44.84089" lon="5.39904">
        <ele>1468.694</ele>
        <time>2015-09-28T12:03:35Z</time>
      </trkpt>
      <trkpt lat="44.84085" lon="5.39907">
        <ele>1468.001</ele>
        <time>2015-09-28T12:03:39Z</time>
      </trkpt>
      <trkpt lat="44.84065" lon="5.39917">
        <ele>1464.794</ele>
        <time>2015-09-28T12:03:57Z</time>
      </trkpt>
      <trkpt lat="44.84041" lon="5.39919">
        <ele>1462.519</ele>
        <time>2015-09-28T12:04:18Z</time>
      </trkpt>
      <trkpt lat="44.8404" lon="5.39919">
        <ele>1461.937</ele>
        <time>2015-09-28T12:04:26Z</time>
      </trkpt>
      <trkpt lat="44.84026" lon="5.39922">
        <ele>1458.877</ele>
        <time>2015-09-28T12:04:39Z</time>
      </trkpt>
      <trkpt lat="44.8402" lon="5.39925">
        <ele>1456.365</ele>
        <time>2015-09-28T12:06:35Z</time>
      </trkpt>
      <trkpt lat="44.84013" lon="5.39927">
        <ele>1454.909</ele>
        <time>2015-09-28T12:06:41Z</time>
      </trkpt>
      <trkpt lat="44.84016" lon="5.39935">
        <ele>1453.011</ele>
        <time>2015-09-28T12:06:47Z</time>
      </trkpt>
      <trkpt lat="44.84024" lon="5.39965">
        <ele>1449.851</ele>
        <time>2015-09-28T12:07:05Z</time>
      </trkpt>
      <trkpt lat="44.84023" lon="5.39981">
        <ele>1447.735</ele>
        <time>2015-09-28T12:07:15Z</time>
      </trkpt>
      <trkpt lat="44.84017" lon="5.39983">
        <ele>1446.221</ele>
        <time>2015-09-28T12:07:28Z</time>
      </trkpt>
      <trkpt lat="44.84013" lon="5.39986">
        <ele>1445.576</ele>
        <time>2015-09-28T12:07:32Z</time>
      </trkpt>
      <trkpt lat="44.84006" lon="5.39987">
        <ele>1443.039</ele>
        <time>2015-09-28T12:07:39Z</time>
      </trkpt>
      <trkpt lat="44.84004" lon="5.39993">
        <ele>1441.169</ele>
        <time>2015-09-28T12:07:48Z</time>
      </trkpt>
      <trkpt lat="44.84003" lon="5.39994">
        <ele>1439.52</ele>
        <time>2015-09-28T12:07:50Z</time>
      </trkpt>
      <trkpt lat="44.84002" lon="5.39997">
        <ele>1438.912</ele>
        <time>2015-09-28T12:07:53Z</time>
      </trkpt>
      <trkpt lat="44.84" lon="5.4">
        <ele>1438.146</ele>
        <time>2015-09-28T12:07:55Z</time>
      </trkpt>
      <trkpt lat="44.84" lon="5.40002">
        <ele>1436.531</ele>
        <time>2015-09-28T12:07:57Z</time>
      </trkpt>
      <trkpt lat="44.83996" lon="5.40002">
        <ele>1436.571</ele>
        <time>2015-09-28T12:08:00Z</time>
      </trkpt>
      <trkpt lat="44.83988" lon="5.40016">
        <ele>1434.293</ele>
        <time>2015-09-28T12:08:14Z</time>
      </trkpt>
      <trkpt lat="44.83985" lon="5.40022">
        <ele>1433.664</ele>
        <time>2015-09-28T12:08:19Z</time>
      </trkpt>
      <trkpt lat="44.83977" lon="5.40024">
        <ele>1431.191</ele>
        <time>2015-09-28T12:08:28Z</time>
      </trkpt>
      <trkpt lat="44.83967" lon="5.40023">
        <ele>1428.161</ele>
        <time>2015-09-28T12:08:40Z</time>
      </trkpt>
      <trkpt lat="44.83952" lon="5.4003">
        <ele>1425.048</ele>
        <time>2015-09-28T12:08:50Z</time>
      </trkpt>
      <trkpt lat="44.8394" lon="5.40031">
        <ele>1421.494</ele>
        <time>2015-09-28T12:09:01Z</time>
      </trkpt>
      <trkpt lat="44.83937" lon="5.40033">
        <ele>1420.141</ele>
        <time>2015-09-28T12:09:05Z</time>
      </trkpt>
      <trkpt lat="44.8393" lon="5.40033">
        <ele>1417.689</ele>
        <time>2015-09-28T12:09:12Z</time>
      </trkpt>
      <trkpt lat="44.83922" lon="5.4004">
        <ele>1415.565</ele>
        <time>2015-09-28T12:09:19Z</time>
      </trkpt>
      <trkpt lat="44.8392" lon="5.40048">
        <ele>1413.424</ele>
        <time>2015-09-28T12:09:26Z</time>
      </trkpt>
      <trkpt lat="44.83914" lon="5.40049">
        <ele>1411.54</ele>
        <time>2015-09-28T12:09:33Z</time>
      </trkpt>
      <trkpt lat="44.83893" lon="5.40057">
        <ele>1407.358</ele>
        <time>2015-09-28T12:09:47Z</time>
      </trkpt>
      <trkpt lat="44.83881" lon="5.40069">
        <ele>1405.077</ele>
        <time>2015-09-28T12:09:58Z</time>
      </trkpt>
      <trkpt lat="44.83876" lon="5.40088">
        <ele>1401.92</ele>
        <time>2015-09-28T12:10:13Z</time>
      </trkpt>
      <trkpt lat="44.83873" lon="5.401">
        <ele>1398.907</ele>
        <time>2015-09-28T12:10:23Z</time>
      </trkpt>
      <trkpt lat="44.83865" lon="5.40112">
        <ele>1396.115</ele>
        <time>2015-09-28T12:10:35Z</time>
      </trkpt>
      <trkpt lat="44.83857" lon="5.40122">
        <ele>1392.885</ele>
        <time>2015-09-28T12:10:45Z</time>
      </trkpt>
      <trkpt lat="44.83842" lon="5.4013">
        <ele>1389.844</ele>
        <time>2015-09-28T12:10:57Z</time>
      </trkpt>
      <trkpt lat="44.83831" lon="5.40139">
        <ele>1387.807</ele>
        <time>2015-09-28T12:11:07Z</time>
      </trkpt>
      <trkpt lat="44.83819" lon="5.40144">
        <ele>1385.783</ele>
        <time>2015-09-28T12:11:20Z</time>
      </trkpt>
      <trkpt lat="44.83816" lon="5.40147">
        <ele>1384.488</ele>
        <time>2015-09-28T12:11:23Z</time>
      </trkpt>
      <trkpt lat="44.83811" lon="5.40152">
        <ele>1384.28</ele>
        <time>2015-09-28T12:11:28Z</time>
      </trkpt>
      <trkpt lat="44.83801" lon="5.40165">
        <ele>1381.521</ele>
        <time>2015-09-28T12:11:42Z</time>
      </trkpt>
      <trkpt lat="44.83799" lon="5.40165">
        <ele>1381.101</ele>
        <time>2015-09-28T12:11:44Z</time>
      </trkpt>
      <trkpt lat="44.83786" lon="5.40168">
        <ele>1378.017</ele>
        <time>2015-09-28T12:11:59Z</time>
      </trkpt>
      <trkpt lat="44.83774" lon="5.40169">
        <ele>1374.875</ele>
        <time>2015-09-28T12:12:11Z</time>
      </trkpt>
      <trkpt lat="44.83769" lon="5.40169">
        <ele>1373.486</ele>
        <time>2015-09-28T12:12:18Z</time>
      </trkpt>
      <trkpt lat="44.83754" lon="5.4018">
        <ele>1372.331</ele>
        <time>2015-09-28T12:12:33Z</time>
      </trkpt>
      <trkpt lat="44.83753" lon="5.4018">
        <ele>1372.368</ele>
        <time>2015-09-28T12:12:49Z</time>
      </trkpt>
      <trkpt lat="44.83745" lon="5.40172">
        <ele>1370.703</ele>
        <time>2015-09-28T12:13:08Z</time>
      </trkpt>
      <trkpt lat="44.83745" lon="5.40172">
        <ele>1371.665</ele>
        <time>2015-09-28T12:13:21Z</time>
      </trkpt>
      <trkpt lat="44.8373" lon="5.40168">
        <ele>1369.21</ele>
        <time>2015-09-28T12:13:38Z</time>
      </trkpt>
      <trkpt lat="44.83724" lon="5.40165">
        <ele>1366.587</ele>
        <time>2015-09-28T12:13:58Z</time>
      </trkpt>
      <trkpt lat="44.83718" lon="5.40161">
        <ele>1364.116</ele>
        <time>2015-09-28T12:14:07Z</time>
      </trkpt>
      <trkpt lat="44.83717" lon="5.4016">
        <ele>1363.749</ele>
        <time>2015-09-28T12:14:10Z</time>
      </trkpt>
      <trkpt lat="44.83728" lon="5.40149">
        <ele>1360.515</ele>
        <time>2015-09-28T12:14:24Z</time>
      </trkpt>
      <trkpt lat="44.83734" lon="5.40143">
        <ele>1358.58</ele>
        <time>2015-09-28T12:14:43Z</time>
      </trkpt>
      <trkpt lat="44.83734" lon="5.40142">
        <ele>1358.58</ele>
        <time>2015-09-28T12:15:25Z</time>
      </trkpt>
      <trkpt lat="44.83737" lon="5.40143">
        <ele>1358.884</ele>
        <time>2015-09-28T12:15:45Z</time>
      </trkpt>
      <trkpt lat="44.83737" lon="5.40144">
        <ele>1359.111</ele>
        <time>2015-09-28T12:15:56Z</time>
      </trkpt>
      <trkpt lat="44.83755" lon="5.40122">
        <ele>1355.745</ele>
        <time>2015-09-28T12:16:17Z</time>
      </trkpt>
      <trkpt lat="44.83755" lon="5.40117">
        <ele>1355.047</ele>
        <time>2015-09-28T12:16:21Z</time>
      </trkpt>
      <trkpt lat="44.83755" lon="5.40113">
        <ele>1353.803</ele>
        <time>2015-09-28T12:16:25Z</time>
      </trkpt>
      <trkpt lat="44.83758" lon="5.40097">
        <ele>1350.881</ele>
        <time>2015-09-28T12:16:39Z</time>
      </trkpt>
      <trkpt lat="44.8376" lon="5.40082">
        <ele>1347.802</ele>
        <time>2015-09-28T12:16:52Z</time>
      </trkpt>
      <trkpt lat="44.83763" lon="5.40074">
        <ele>1347.017</ele>
        <time>2015-09-28T12:16:57Z</time>
      </trkpt>
      <trkpt lat="44.83759" lon="5.40058">
        <ele>1343.804</ele>
        <time>2015-09-28T12:17:11Z</time>
      </trkpt>
      <trkpt lat="44.83759" lon="5.40059">
        <ele>1343.738</ele>
        <time>2015-09-28T12:17:28Z</time>
      </trkpt>
      <trkpt lat="44.83757" lon="5.40055">
        <ele>1342.803</ele>
        <time>2015-09-28T12:17:32Z</time>
      </trkpt>
      <trkpt lat="44.83754" lon="5.40054">
        <ele>1343.458</ele>
        <time>2015-09-28T12:18:51Z</time>
      </trkpt>
      <trkpt lat="44.83748" lon="5.40059">
        <ele>1342.063</ele>
        <time>2015-09-28T12:19:44Z</time>
      </trkpt>
      <trkpt lat="44.83734" lon="5.4006">
        <ele>1338.359</ele>
        <time>2015-09-28T12:19:57Z</time>
      </trkpt>
      <trkpt lat="44.83729" lon="5.40061">
        <ele>1335.814</ele>
        <time>2015-09-28T12:20:05Z</time>
      </trkpt>
      <trkpt lat="44.83728" lon="5.40061">
        <ele>1335.315</ele>
        <time>2015-09-28T12:20:06Z</time>
      </trkpt>
      <trkpt lat="44.83725" lon="5.40063">
        <ele>1334.509</ele>
        <time>2015-09-28T12:20:09Z</time>
      </trkpt>
      <trkpt lat="44.83717" lon="5.40066">
        <ele>1330.926</ele>
        <time>2015-09-28T12:20:18Z</time>
      </trkpt>
      <trkpt lat="44.8371" lon="5.40048">
        <ele>1328.299</ele>
        <time>2015-09-28T12:20:34Z</time>
      </trkpt>
      <trkpt lat="44.83712" lon="5.40038">
        <ele>1326.796</ele>
        <time>2015-09-28T12:20:47Z</time>
      </trkpt>
      <trkpt lat="44.83717" lon="5.40013">
        <ele>1323.511</ele>
        <time>2015-09-28T12:21:02Z</time>
      </trkpt>
      <trkpt lat="44.83723" lon="5.39994">
        <ele>1320.449</ele>
        <time>2015-09-28T12:21:13Z</time>
      </trkpt>
      <trkpt lat="44.83727" lon="5.39985">
        <ele>1319.91</ele>
        <time>2015-09-28T12:21:19Z</time>
      </trkpt>
      <trkpt lat="44.83734" lon="5.39984">
        <ele>1318.737</ele>
        <time>2015-09-28T12:21:25Z</time>
      </trkpt>
      <trkpt lat="44.83742" lon="5.39986">
        <ele>1316.758</ele>
        <time>2015-09-28T12:21:31Z</time>
      </trkpt>
      <trkpt lat="44.83751" lon="5.39974">
        <ele>1313.391</ele>
        <time>2015-09-28T12:21:43Z</time>
      </trkpt>
      <trkpt lat="44.83755" lon="5.39963">
        <ele>1309.882</ele>
        <time>2015-09-28T12:21:53Z</time>
      </trkpt>
      <trkpt lat="44.83755" lon="5.39962">
        <ele>1309.882</ele>
        <time>2015-09-28T12:21:54Z</time>
      </trkpt>
      <trkpt lat="44.83757" lon="5.39959">
        <ele>1309.38</ele>
        <time>2015-09-28T12:21:56Z</time>
      </trkpt>
      <trkpt lat="44.83763" lon="5.39947">
        <ele>1306.976</ele>
        <time>2015-09-28T12:22:05Z</time>
      </trkpt>
      <trkpt lat="44.83764" lon="5.39925">
        <ele>1303.694</ele>
        <time>2015-09-28T12:22:19Z</time>
      </trkpt>
      <trkpt lat="44.8377" lon="5.39921">
        <ele>1302.716</ele>
        <time>2015-09-28T12:22:25Z</time>
      </trkpt>
      <trkpt lat="44.83781" lon="5.39905">
        <ele>1300.174</ele>
        <time>2015-09-28T12:22:39Z</time>
      </trkpt>
      <trkpt lat="44.83786" lon="5.39901">
        <ele>1299.271</ele>
        <time>2015-09-28T12:22:45Z</time>
      </trkpt>
      <trkpt lat="44.83791" lon="5.39891">
        <ele>1297.075</ele>
        <time>2015-09-28T12:22:53Z</time>
      </trkpt>
      <trkpt lat="44.83793" lon="5.39887">
        <ele>1296.689</ele>
        <time>2015-09-28T12:22:56Z</time>
      </trkpt>
      <trkpt lat="44.83807" lon="5.39865">
        <ele>1293.466</ele>
        <time>2015-09-28T12:23:15Z</time>
      </trkpt>
      <trkpt lat="44.83809" lon="5.39863">
        <ele>1293.978</ele>
        <time>2015-09-28T12:23:18Z</time>
      </trkpt>
      <trkpt lat="44.83821" lon="5.39842">
        <ele>1290.866</ele>
        <time>2015-09-28T12:23:34Z</time>
      </trkpt>
      <trkpt lat="44.83838" lon="5.39827">
        <ele>1292.538</ele>
        <time>2015-09-28T12:23:56Z</time>
      </trkpt>
      <trkpt lat="44.83849" lon="5.3981">
        <ele>1293.061</ele>
        <time>2015-09-28T12:24:12Z</time>
      </trkpt>
      <trkpt lat="44.83851" lon="5.39805">
        <ele>1292.773</ele>
        <time>2015-09-28T12:24:16Z</time>
      </trkpt>
      <trkpt lat="44.83857" lon="5.39788">
        <ele>1290.379</ele>
        <time>2015-09-28T12:24:32Z</time>
      </trkpt>
      <trkpt lat="44.83857" lon="5.39773">
        <ele>1286.955</ele>
        <time>2015-09-28T12:24:46Z</time>
      </trkpt>
      <trkpt lat="44.83853" lon="5.39767">
        <ele>1283.879</ele>
        <time>2015-09-28T12:24:55Z</time>
      </trkpt>
      <trkpt lat="44.83848" lon="5.39762">
        <ele>1280.603</ele>
        <time>2015-09-28T12:25:05Z</time>
      </trkpt>
      <trkpt lat="44.83847" lon="5.3976">
        <ele>1280.603</ele>
        <time>2015-09-28T12:25:06Z</time>
      </trkpt>
      <trkpt lat="44.83847" lon="5.39756">
        <ele>1279.982</ele>
        <time>2015-09-28T12:25:10Z</time>
      </trkpt>
      <trkpt lat="44.83847" lon="5.39752">
        <ele>1279.171</ele>
        <time>2015-09-28T12:25:13Z</time>
      </trkpt>
      <trkpt lat="44.83846" lon="5.39743">
        <ele>1277.435</ele>
        <time>2015-09-28T12:25:19Z</time>
      </trkpt>
      <trkpt lat="44.83847" lon="5.39718">
        <ele>1276.753</ele>
        <time>2015-09-28T12:25:32Z</time>
      </trkpt>
      <trkpt lat="44.83846" lon="5.39689">
        <ele>1274.43</ele>
        <time>2015-09-28T12:25:50Z</time>
      </trkpt>
      <trkpt lat="44.83843" lon="5.39676">
        <ele>1272.581</ele>
        <time>2015-09-28T12:26:00Z</time>
      </trkpt>
      <trkpt lat="44.83846" lon="5.39661">
        <ele>1270.274</ele>
        <time>2015-09-28T12:26:11Z</time>
      </trkpt>
      <trkpt lat="44.83844" lon="5.39642">
        <ele>1268.208</ele>
        <time>2015-09-28T12:26:23Z</time>
      </trkpt>
      <trkpt lat="44.83858" lon="5.3961">
        <ele>1265.547</ele>
        <time>2015-09-28T12:26:44Z</time>
      </trkpt>
      <trkpt lat="44.83865" lon="5.39583">
        <ele>1262.627</ele>
        <time>2015-09-28T12:27:02Z</time>
      </trkpt>
      <trkpt lat="44.83868" lon="5.39573">
        <ele>1259.623</ele>
        <time>2015-09-28T12:27:10Z</time>
      </trkpt>
      <trkpt lat="44.83868" lon="5.3956">
        <ele>1256.481</ele>
        <time>2015-09-28T12:27:17Z</time>
      </trkpt>
      <trkpt lat="44.83869" lon="5.39558">
        <ele>1256.481</ele>
        <time>2015-09-28T12:27:18Z</time>
      </trkpt>
      <trkpt lat="44.83868" lon="5.39556">
        <ele>1255.445</ele>
        <time>2015-09-28T12:27:20Z</time>
      </trkpt>
      <trkpt lat="44.83863" lon="5.39558">
        <ele>1253.678</ele>
        <time>2015-09-28T12:27:26Z</time>
      </trkpt>
      <trkpt lat="44.83862" lon="5.3956">
        <ele>1253.213</ele>
        <time>2015-09-28T12:27:28Z</time>
      </trkpt>
      <trkpt lat="44.83846" lon="5.39594">
        <ele>1251.5</ele>
        <time>2015-09-28T12:27:53Z</time>
      </trkpt>
      <trkpt lat="44.83833" lon="5.39618">
        <ele>1249.727</ele>
        <time>2015-09-28T12:28:12Z</time>
      </trkpt>
      <trkpt lat="44.83828" lon="5.39623">
        <ele>1249.241</ele>
        <time>2015-09-28T12:28:17Z</time>
      </trkpt>
      <trkpt lat="44.83829" lon="5.39627">
        <ele>1249.202</ele>
        <time>2015-09-28T12:28:20Z</time>
      </trkpt>
      <trkpt lat="44.83821" lon="5.39647">
        <ele>1249.622</ele>
        <time>2015-09-28T12:28:35Z</time>
      </trkpt>
      <trkpt lat="44.83818" lon="5.39663">
        <ele>1250.174</ele>
        <time>2015-09-28T12:28:46Z</time>
      </trkpt>
      <trkpt lat="44.83815" lon="5.39669">
        <ele>1250.858</ele>
        <time>2015-09-28T12:28:51Z</time>
      </trkpt>
      <trkpt lat="44.83812" lon="5.39673">
        <ele>1250.935</ele>
        <time>2015-09-28T12:28:55Z</time>
      </trkpt>
      <trkpt lat="44.83807" lon="5.39711">
        <ele>1251.839</ele>
        <time>2015-09-28T12:29:19Z</time>
      </trkpt>
      <trkpt lat="44.83808" lon="5.39726">
        <ele>1252.198</ele>
        <time>2015-09-28T12:29:30Z</time>
      </trkpt>
      <trkpt lat="44.83811" lon="5.39744">
        <ele>1253.059</ele>
        <time>2015-09-28T12:29:48Z</time>
      </trkpt>
      <trkpt lat="44.83811" lon="5.39744">
        <ele>1252.533</ele>
        <time>2015-09-28T12:30:10Z</time>
      </trkpt>
      <trkpt lat="44.83811" lon="5.39744">
        <ele>1252.338</ele>
        <time>2015-09-28T12:30:42Z</time>
      </trkpt>
      <trkpt lat="44.83814" lon="5.39754">
        <ele>1253.051</ele>
        <time>2015-09-28T12:31:02Z</time>
      </trkpt>
      <trkpt lat="44.83812" lon="5.39757">
        <ele>1253.577</ele>
        <time>2015-09-28T12:40:03Z</time>
      </trkpt>
    </trkseg>
  </trk>
</gpx>